sensor_id;sensor_type;location;lat;lon;timestamp;pressure;altitude;pressure_sealevel;temperature;humidity
77778;BME280;66966;-34.746;138.604;2023-03-01T00:01:13;101687.73;;;22.27;31.66
77778;BME280;66966;-34.746;138.604;2023-03-01T00:03:36;101685.53;;;22.30;31.23
77778;BME280;66966;-34.746;138.604;2023-03-01T00:06:02;101686.66;;;22.18;31.37
77778;BME280;66966;-34.746;138.604;2023-03-01T00:08:27;101690.95;;;22.17;31.78
77778;BME280;66966;-34.746;138.604;2023-03-01T00:11:02;101690.19;;;22.27;31.76
77778;BME280;66966;-34.746;138.604;2023-03-01T00:13:17;101693.19;;;22.24;31.28
77778;BME280;66966;-34.746;138.604;2023-03-01T00:15:43;101693.99;;;22.05;31.07
77778;BME280;66966;-34.746;138.604;2023-03-01T00:18:08;101690.99;;;22.36;31.21
77778;BME280;66966;-34.746;138.604;2023-03-01T00:20:34;101697.60;;;22.39;31.58
77778;BME280;66966;-34.746;138.604;2023-03-01T00:22:59;101695.42;;;22.34;31.32
77778;BME280;66966;-34.746;138.604;2023-03-01T00:25:24;101696.43;;;22.41;30.97
77778;BME280;66966;-34.746;138.604;2023-03-01T00:27:49;101705.20;;;22.45;31.00
77778;BME280;66966;-34.746;138.604;2023-03-01T00:30:15;101697.77;;;22.23;31.20
77778;BME280;66966;-34.746;138.604;2023-03-01T00:32:40;101696.00;;;22.29;31.17
77778;BME280;66966;-34.746;138.604;2023-03-01T00:35:06;101691.98;;;22.51;30.99
77778;BME280;66966;-34.746;138.604;2023-03-01T00:37:31;101688.31;;;22.41;30.92
77778;BME280;66966;-34.746;138.604;2023-03-01T00:39:56;101686.44;;;22.59;31.07
77778;BME280;66966;-34.746;138.604;2023-03-01T00:42:22;101686.31;;;22.67;30.69
77778;BME280;66966;-34.746;138.604;2023-03-01T00:44:47;101682.97;;;22.69;30.17
77778;BME280;66966;-34.746;138.604;2023-03-01T00:47:15;101682.44;;;22.65;30.89
77778;BME280;66966;-34.746;138.604;2023-03-01T00:49:38;101685.60;;;23.01;31.00
77778;BME280;66966;-34.746;138.604;2023-03-01T00:52:03;101682.71;;;23.17;30.82
77778;BME280;66966;-34.746;138.604;2023-03-01T00:54:28;101682.91;;;23.06;30.73
77778;BME280;66966;-34.746;138.604;2023-03-01T00:56:54;101685.63;;;22.98;30.35
77778;BME280;66966;-34.746;138.604;2023-03-01T00:59:19;101687.30;;;23.11;30.32
77778;BME280;66966;-34.746;138.604;2023-03-01T01:01:44;101688.55;;;23.12;30.25
77778;BME280;66966;-34.746;138.604;2023-03-01T01:04:11;101692.68;;;23.14;30.74
77778;BME280;66966;-34.746;138.604;2023-03-01T01:06:37;101698.82;;;22.80;31.40
77778;BME280;66966;-34.746;138.604;2023-03-01T01:09:01;101696.94;;;22.69;32.67
77778;BME280;66966;-34.746;138.604;2023-03-01T01:11:28;101696.61;;;22.88;33.20
77778;BME280;66966;-34.746;138.604;2023-03-01T01:13:52;101689.84;;;22.67;32.87
77778;BME280;66966;-34.746;138.604;2023-03-01T01:16:18;101686.92;;;22.82;31.93
77778;BME280;66966;-34.746;138.604;2023-03-01T01:18:42;101686.61;;;22.14;32.21
77778;BME280;66966;-34.746;138.604;2023-03-01T01:21:10;101684.83;;;22.78;32.32
77778;BME280;66966;-34.746;138.604;2023-03-01T01:23:33;101684.17;;;22.82;32.35
77778;BME280;66966;-34.746;138.604;2023-03-01T01:28:23;101670.72;;;23.12;32.11
77778;BME280;66966;-34.746;138.604;2023-03-01T01:30:49;101669.87;;;22.88;31.79
77778;BME280;66966;-34.746;138.604;2023-03-01T01:33:14;101672.27;;;23.03;31.81
77778;BME280;66966;-34.746;138.604;2023-03-01T01:35:40;101667.06;;;23.13;31.65
77778;BME280;66966;-34.746;138.604;2023-03-01T01:38:05;101665.86;;;23.03;31.98
77778;BME280;66966;-34.746;138.604;2023-03-01T01:40:30;101658.90;;;23.29;31.39
77778;BME280;66966;-34.746;138.604;2023-03-01T01:42:55;101659.06;;;23.17;31.83
77778;BME280;66966;-34.746;138.604;2023-03-01T01:45:30;101654.31;;;23.20;30.73
77778;BME280;66966;-34.746;138.604;2023-03-01T01:47:47;101649.64;;;23.30;30.75
77778;BME280;66966;-34.746;138.604;2023-03-01T01:50:16;101649.11;;;23.30;30.86
77778;BME280;66966;-34.746;138.604;2023-03-01T01:52:38;101650.15;;;23.33;30.90
77778;BME280;66966;-34.746;138.604;2023-03-01T01:55:08;101644.81;;;23.34;30.69
77778;BME280;66966;-34.746;138.604;2023-03-01T01:57:30;101639.92;;;23.50;30.81
77778;BME280;66966;-34.746;138.604;2023-03-01T01:59:56;101639.28;;;23.22;30.31
77778;BME280;66966;-34.746;138.604;2023-03-01T02:02:19;101634.87;;;23.24;30.78
77778;BME280;66966;-34.746;138.604;2023-03-01T02:04:43;101630.51;;;23.39;30.19
77778;BME280;66966;-34.746;138.604;2023-03-01T02:07:14;101623.56;;;23.56;29.82
77778;BME280;66966;-34.746;138.604;2023-03-01T02:09:34;101617.47;;;23.74;29.61
77778;BME280;66966;-34.746;138.604;2023-03-01T02:12:00;101617.15;;;23.96;30.18
77778;BME280;66966;-34.746;138.604;2023-03-01T02:14:25;101615.82;;;24.07;28.81
77778;BME280;66966;-34.746;138.604;2023-03-01T02:16:50;101613.62;;;24.07;28.48
77778;BME280;66966;-34.746;138.604;2023-03-01T02:19:23;101614.07;;;24.04;28.37
77778;BME280;66966;-34.746;138.604;2023-03-01T02:21:48;101609.62;;;23.86;28.91
77778;BME280;66966;-34.746;138.604;2023-03-01T02:24:15;101608.12;;;24.11;28.36
77778;BME280;66966;-34.746;138.604;2023-03-01T02:26:34;101609.46;;;24.44;27.94
77778;BME280;66966;-34.746;138.604;2023-03-01T02:28:56;101601.94;;;23.91;27.82
77778;BME280;66966;-34.746;138.604;2023-03-01T02:31:22;101601.81;;;24.51;28.08
77778;BME280;66966;-34.746;138.604;2023-03-01T02:33:47;101590.90;;;24.09;28.34
77778;BME280;66966;-34.746;138.604;2023-03-01T02:36:15;101587.93;;;24.07;28.56
77778;BME280;66966;-34.746;138.604;2023-03-01T02:38:38;101588.78;;;24.33;28.34
77778;BME280;66966;-34.746;138.604;2023-03-01T02:41:04;101589.28;;;24.40;27.93
77778;BME280;66966;-34.746;138.604;2023-03-01T02:43:32;101586.86;;;24.44;28.02
77778;BME280;66966;-34.746;138.604;2023-03-01T02:45:57;101585.58;;;24.60;28.59
77778;BME280;66966;-34.746;138.604;2023-03-01T02:48:20;101580.04;;;24.76;28.06
77778;BME280;66966;-34.746;138.604;2023-03-01T02:50:55;101579.75;;;24.82;28.11
77778;BME280;66966;-34.746;138.604;2023-03-01T02:53:14;101574.86;;;24.83;27.59
77778;BME280;66966;-34.746;138.604;2023-03-01T02:55:34;101569.52;;;24.81;27.90
77778;BME280;66966;-34.746;138.604;2023-03-01T02:58:03;101574.47;;;24.90;27.70
77778;BME280;66966;-34.746;138.604;2023-03-01T03:00:28;101577.25;;;25.14;27.61
77778;BME280;66966;-34.746;138.604;2023-03-01T03:02:52;101577.00;;;25.00;27.13
77778;BME280;66966;-34.746;138.604;2023-03-01T03:05:18;101570.26;;;25.17;27.34
77778;BME280;66966;-34.746;138.604;2023-03-01T03:07:42;101575.23;;;25.13;27.66
77778;BME280;66966;-34.746;138.604;2023-03-01T03:10:10;101569.08;;;24.98;27.80
77778;BME280;66966;-34.746;138.604;2023-03-01T03:12:32;101565.41;;;25.40;27.69
77778;BME280;66966;-34.746;138.604;2023-03-01T03:14:56;101569.23;;;25.37;28.01
77778;BME280;66966;-34.746;138.604;2023-03-01T03:17:22;101560.58;;;25.37;27.04
77778;BME280;66966;-34.746;138.604;2023-03-01T03:19:47;101560.58;;;25.34;27.31
77778;BME280;66966;-34.746;138.604;2023-03-01T03:22:12;101568.78;;;25.03;27.66
77778;BME280;66966;-34.746;138.604;2023-03-01T03:24:38;101562.51;;;24.84;27.43
77778;BME280;66966;-34.746;138.604;2023-03-01T03:27:03;101557.56;;;24.60;27.65
77778;BME280;66966;-34.746;138.604;2023-03-01T03:29:29;101557.95;;;24.51;28.03
77778;BME280;66966;-34.746;138.604;2023-03-01T03:31:54;101560.18;;;24.49;27.96
77778;BME280;66966;-34.746;138.604;2023-03-01T03:34:19;101551.88;;;24.78;28.28
77778;BME280;66966;-34.746;138.604;2023-03-01T03:36:45;101551.17;;;25.02;27.39
77778;BME280;66966;-34.746;138.604;2023-03-01T03:39:10;101554.03;;;25.33;27.40
77778;BME280;66966;-34.746;138.604;2023-03-01T03:41:36;101542.34;;;25.03;27.12
77778;BME280;66966;-34.746;138.604;2023-03-01T03:44:01;101536.19;;;25.47;27.58
77778;BME280;66966;-34.746;138.604;2023-03-01T03:46:26;101530.47;;;25.55;26.87
77778;BME280;66966;-34.746;138.604;2023-03-01T03:48:52;101529.00;;;25.40;26.66
77778;BME280;66966;-34.746;138.604;2023-03-01T03:51:18;101533.56;;;25.37;26.98
77778;BME280;66966;-34.746;138.604;2023-03-01T03:53:42;101530.14;;;24.99;27.00
77778;BME280;66966;-34.746;138.604;2023-03-01T03:56:07;101523.67;;;25.80;26.26
77778;BME280;66966;-34.746;138.604;2023-03-01T03:58:32;101521.48;;;25.68;26.14
77778;BME280;66966;-34.746;138.604;2023-03-01T04:00:58;101522.53;;;25.72;26.16
77778;BME280;66966;-34.746;138.604;2023-03-01T04:03:24;101525.21;;;26.24;26.28
77778;BME280;66966;-34.746;138.604;2023-03-01T04:05:48;101520.40;;;26.12;25.59
77778;BME280;66966;-34.746;138.604;2023-03-01T04:08:13;101513.67;;;26.36;25.51
77778;BME280;66966;-34.746;138.604;2023-03-01T04:10:40;101519.70;;;26.26;25.30
77778;BME280;66966;-34.746;138.604;2023-03-01T04:13:04;101513.72;;;26.52;25.32
77778;BME280;66966;-34.746;138.604;2023-03-01T04:15:29;101509.26;;;26.81;25.02
77778;BME280;66966;-34.746;138.604;2023-03-01T04:17:55;101509.36;;;26.64;25.30
77778;BME280;66966;-34.746;138.604;2023-03-01T04:20:21;101503.51;;;26.42;25.87
77778;BME280;66966;-34.746;138.604;2023-03-01T04:22:45;101500.80;;;26.42;25.83
77778;BME280;66966;-34.746;138.604;2023-03-01T04:25:10;101498.32;;;26.12;26.13
77778;BME280;66966;-34.746;138.604;2023-03-01T04:27:35;101496.94;;;26.21;27.13
77778;BME280;66966;-34.746;138.604;2023-03-01T04:30:00;101497.89;;;26.41;26.19
77778;BME280;66966;-34.746;138.604;2023-03-01T04:32:25;101492.71;;;26.57;25.02
77778;BME280;66966;-34.746;138.604;2023-03-01T04:34:51;101488.56;;;26.68;25.10
77778;BME280;66966;-34.746;138.604;2023-03-01T04:37:16;101482.34;;;26.32;24.82
77778;BME280;66966;-34.746;138.604;2023-03-01T04:39:41;101478.67;;;26.41;24.85
77778;BME280;66966;-34.746;138.604;2023-03-01T04:42:06;101473.39;;;26.64;24.61
77778;BME280;66966;-34.746;138.604;2023-03-01T04:44:31;101469.79;;;26.59;24.42
77778;BME280;66966;-34.746;138.604;2023-03-01T04:46:57;101469.94;;;26.50;25.23
77778;BME280;66966;-34.746;138.604;2023-03-01T04:49:22;101476.55;;;26.61;24.72
77778;BME280;66966;-34.746;138.604;2023-03-01T04:51:47;101465.27;;;26.74;24.96
77778;BME280;66966;-34.746;138.604;2023-03-01T04:54:12;101463.52;;;26.35;25.11
77778;BME280;66966;-34.746;138.604;2023-03-01T04:56:37;101465.19;;;26.21;25.41
77778;BME280;66966;-34.746;138.604;2023-03-01T04:59:02;101463.36;;;26.46;25.17
77778;BME280;66966;-34.746;138.604;2023-03-01T05:01:28;101462.63;;;26.68;25.59
77778;BME280;66966;-34.746;138.604;2023-03-01T05:03:53;101458.46;;;26.58;24.80
77778;BME280;66966;-34.746;138.604;2023-03-01T05:06:19;101456.53;;;26.87;24.63
77778;BME280;66966;-34.746;138.604;2023-03-01T05:08:44;101455.94;;;26.82;24.37
77778;BME280;66966;-34.746;138.604;2023-03-01T05:11:10;101454.49;;;27.04;23.92
77778;BME280;66966;-34.746;138.604;2023-03-01T05:13:34;101448.07;;;26.93;23.77
77778;BME280;66966;-34.746;138.604;2023-03-01T05:16:01;101451.09;;;27.01;24.13
77778;BME280;66966;-34.746;138.604;2023-03-01T05:18:25;101448.43;;;27.00;24.11
77778;BME280;66966;-34.746;138.604;2023-03-01T05:20:49;101450.08;;;26.53;25.44
77778;BME280;66966;-34.746;138.604;2023-03-01T05:23:14;101453.39;;;26.87;25.11
77778;BME280;66966;-34.746;138.604;2023-03-01T05:25:40;101441.84;;;26.70;25.05
77778;BME280;66966;-34.746;138.604;2023-03-01T05:28:05;101448.99;;;26.72;25.41
77778;BME280;66966;-34.746;138.604;2023-03-01T05:30:30;101441.80;;;26.59;25.86
77778;BME280;66966;-34.746;138.604;2023-03-01T05:32:55;101439.67;;;26.50;25.53
77778;BME280;66966;-34.746;138.604;2023-03-01T05:35:21;101444.40;;;26.48;25.23
77778;BME280;66966;-34.746;138.604;2023-03-01T05:37:48;101434.12;;;26.34;24.96
77778;BME280;66966;-34.746;138.604;2023-03-01T05:40:13;101435.67;;;26.93;24.85
77778;BME280;66966;-34.746;138.604;2023-03-01T05:42:36;101436.37;;;26.61;24.93
77778;BME280;66966;-34.746;138.604;2023-03-01T05:45:01;101433.82;;;26.77;24.90
77778;BME280;66966;-34.746;138.604;2023-03-01T05:47:26;101433.54;;;26.78;24.36
77778;BME280;66966;-34.746;138.604;2023-03-01T05:49:52;101436.27;;;26.82;24.07
77778;BME280;66966;-34.746;138.604;2023-03-01T05:52:17;101429.87;;;26.96;24.68
77778;BME280;66966;-34.746;138.604;2023-03-01T05:54:42;101430.33;;;26.82;24.96
77778;BME280;66966;-34.746;138.604;2023-03-01T05:57:07;101429.51;;;27.00;24.62
77778;BME280;66966;-34.746;138.604;2023-03-01T05:59:32;101425.78;;;27.15;24.49
77778;BME280;66966;-34.746;138.604;2023-03-01T06:01:58;101419.93;;;27.34;23.96
77778;BME280;66966;-34.746;138.604;2023-03-01T06:04:23;101425.17;;;27.42;24.02
77778;BME280;66966;-34.746;138.604;2023-03-01T06:06:48;101425.49;;;27.13;23.96
77778;BME280;66966;-34.746;138.604;2023-03-01T06:09:13;101430.25;;;27.09;24.02
77778;BME280;66966;-34.746;138.604;2023-03-01T06:11:38;101421.83;;;27.46;24.02
77778;BME280;66966;-34.746;138.604;2023-03-01T06:14:05;101425.45;;;27.38;24.25
77778;BME280;66966;-34.746;138.604;2023-03-01T06:16:29;101424.11;;;27.32;23.54
77778;BME280;66966;-34.746;138.604;2023-03-01T06:18:54;101421.02;;;27.06;23.27
77778;BME280;66966;-34.746;138.604;2023-03-01T06:21:19;101414.37;;;27.32;23.42
77778;BME280;66966;-34.746;138.604;2023-03-01T06:23:44;101411.99;;;26.86;23.59
77778;BME280;66966;-34.746;138.604;2023-03-01T06:26:10;101412.47;;;27.15;23.28
77778;BME280;66966;-34.746;138.604;2023-03-01T06:28:35;101405.16;;;27.22;23.18
77778;BME280;66966;-34.746;138.604;2023-03-01T06:31:00;101403.28;;;27.01;23.67
77778;BME280;66966;-34.746;138.604;2023-03-01T06:33:25;101405.00;;;26.71;24.03
77778;BME280;66966;-34.746;138.604;2023-03-01T06:35:50;101403.58;;;26.52;24.44
77778;BME280;66966;-34.746;138.604;2023-03-01T06:38:16;101402.20;;;26.75;24.07
77778;BME280;66966;-34.746;138.604;2023-03-01T06:40:41;101404.89;;;27.19;24.07
77778;BME280;66966;-34.746;138.604;2023-03-01T06:43:06;101404.55;;;26.56;24.43
77778;BME280;66966;-34.746;138.604;2023-03-01T06:45:31;101403.94;;;26.66;24.61
77778;BME280;66966;-34.746;138.604;2023-03-01T06:48:02;101400.47;;;26.81;24.62
77778;BME280;66966;-34.746;138.604;2023-03-01T06:50:22;101396.76;;;27.28;23.70
77778;BME280;66966;-34.746;138.604;2023-03-01T06:52:47;101395.42;;;27.28;23.06
77778;BME280;66966;-34.746;138.604;2023-03-01T06:55:12;101394.14;;;27.08;23.33
77778;BME280;66966;-34.746;138.604;2023-03-01T06:57:37;101398.68;;;27.09;23.77
77778;BME280;66966;-34.746;138.604;2023-03-01T07:00:02;101389.38;;;27.05;23.86
77778;BME280;66966;-34.746;138.604;2023-03-01T07:02:28;101388.71;;;27.21;23.87
77778;BME280;66966;-34.746;138.604;2023-03-01T07:04:53;101390.15;;;27.02;23.68
77778;BME280;66966;-34.746;138.604;2023-03-01T07:07:18;101391.68;;;27.36;23.49
77778;BME280;66966;-34.746;138.604;2023-03-01T07:09:43;101389.78;;;26.70;23.62
77778;BME280;66966;-34.746;138.604;2023-03-01T07:12:08;101395.33;;;26.75;23.47
77778;BME280;66966;-34.746;138.604;2023-03-01T07:14:34;101391.87;;;26.47;23.89
77778;BME280;66966;-34.746;138.604;2023-03-01T07:16:59;101392.26;;;26.49;24.29
77778;BME280;66966;-34.746;138.604;2023-03-01T07:19:24;101389.99;;;26.84;23.56
77778;BME280;66966;-34.746;138.604;2023-03-01T07:21:49;101391.14;;;26.76;23.43
77778;BME280;66966;-34.746;138.604;2023-03-01T07:24:14;101390.02;;;26.52;23.50
77778;BME280;66966;-34.746;138.604;2023-03-01T07:26:39;101398.33;;;26.37;23.67
77778;BME280;66966;-34.746;138.604;2023-03-01T07:29:06;101399.63;;;26.56;23.81
77778;BME280;66966;-34.746;138.604;2023-03-01T07:31:30;101395.95;;;26.25;23.94
77778;BME280;66966;-34.746;138.604;2023-03-01T07:33:55;101397.11;;;26.21;24.27
77778;BME280;66966;-34.746;138.604;2023-03-01T07:36:20;101404.59;;;26.42;24.14
77778;BME280;66966;-34.746;138.604;2023-03-01T07:38:45;101404.80;;;26.33;23.99
77778;BME280;66966;-34.746;138.604;2023-03-01T07:41:10;101401.65;;;26.51;23.39
77778;BME280;66966;-34.746;138.604;2023-03-01T07:43:35;101403.22;;;26.50;23.28
77778;BME280;66966;-34.746;138.604;2023-03-01T07:46:01;101404.46;;;26.57;23.07
77778;BME280;66966;-34.746;138.604;2023-03-01T07:48:26;101404.30;;;26.17;23.15
77778;BME280;66966;-34.746;138.604;2023-03-01T07:50:58;101406.94;;;26.86;23.22
77778;BME280;66966;-34.746;138.604;2023-03-01T07:53:16;101408.02;;;26.76;23.29
77778;BME280;66966;-34.746;138.604;2023-03-01T07:55:41;101409.57;;;26.62;23.14
77778;BME280;66966;-34.746;138.604;2023-03-01T07:58:07;101405.33;;;26.54;22.57
77778;BME280;66966;-34.746;138.604;2023-03-01T08:00:32;101405.55;;;26.47;22.88
77778;BME280;66966;-34.746;138.604;2023-03-01T08:03:01;101403.65;;;26.34;23.09
77778;BME280;66966;-34.746;138.604;2023-03-01T08:05:22;101405.48;;;26.42;23.18
77778;BME280;66966;-34.746;138.604;2023-03-01T08:07:47;101406.77;;;26.22;23.31
77778;BME280;66966;-34.746;138.604;2023-03-01T08:10:13;101405.98;;;26.54;23.38
77778;BME280;66966;-34.746;138.604;2023-03-01T08:12:47;101413.67;;;26.33;23.27
77778;BME280;66966;-34.746;138.604;2023-03-01T08:15:03;101426.01;;;26.27;23.41
77778;BME280;66966;-34.746;138.604;2023-03-01T08:17:28;101422.65;;;26.51;23.41
77778;BME280;66966;-34.746;138.604;2023-03-01T08:19:54;101426.03;;;26.09;23.50
77778;BME280;66966;-34.746;138.604;2023-03-01T08:22:19;101425.35;;;26.37;23.22
77778;BME280;66966;-34.746;138.604;2023-03-01T08:24:44;101427.56;;;25.75;23.33
77778;BME280;66966;-34.746;138.604;2023-03-01T08:27:09;101433.54;;;26.09;23.46
77778;BME280;66966;-34.746;138.604;2023-03-01T08:29:35;101427.24;;;25.33;23.82
77778;BME280;66966;-34.746;138.604;2023-03-01T08:32:00;101427.24;;;25.80;23.80
77778;BME280;66966;-34.746;138.604;2023-03-01T08:34:25;101428.62;;;25.65;24.05
77778;BME280;66966;-34.746;138.604;2023-03-01T08:36:50;101425.03;;;25.46;23.94
77778;BME280;66966;-34.746;138.604;2023-03-01T08:39:16;101428.82;;;24.77;24.29
77778;BME280;66966;-34.746;138.604;2023-03-01T08:41:41;101426.26;;;24.87;24.60
77778;BME280;66966;-34.746;138.604;2023-03-01T08:44:06;101433.50;;;24.78;24.76
77778;BME280;66966;-34.746;138.604;2023-03-01T08:46:34;101431.25;;;24.81;24.60
77778;BME280;66966;-34.746;138.604;2023-03-01T08:48:57;101431.30;;;24.79;24.73
77778;BME280;66966;-34.746;138.604;2023-03-01T08:51:23;101435.23;;;24.67;24.90
77778;BME280;66966;-34.746;138.604;2023-03-01T08:53:48;101441.59;;;24.47;25.37
77778;BME280;66966;-34.746;138.604;2023-03-01T08:56:13;101447.60;;;24.34;25.77
77778;BME280;66966;-34.746;138.604;2023-03-01T08:58:39;101456.04;;;24.32;26.10
77778;BME280;66966;-34.746;138.604;2023-03-01T09:01:08;101455.26;;;24.33;26.31
77778;BME280;66966;-34.746;138.604;2023-03-01T09:03:28;101454.81;;;24.38;26.53
77778;BME280;66966;-34.746;138.604;2023-03-01T09:05:54;101461.12;;;24.08;26.64
77778;BME280;66966;-34.746;138.604;2023-03-01T09:08:19;101462.54;;;24.06;26.76
77778;BME280;66966;-34.746;138.604;2023-03-01T09:10:45;101468.63;;;24.11;26.89
77778;BME280;66966;-34.746;138.604;2023-03-01T09:13:09;101468.45;;;24.29;26.98
77778;BME280;66966;-34.746;138.604;2023-03-01T09:15:36;101470.05;;;24.31;27.25
77778;BME280;66966;-34.746;138.604;2023-03-01T09:18:00;101479.22;;;23.82;27.47
77778;BME280;66966;-34.746;138.604;2023-03-01T09:20:25;101480.41;;;23.91;27.71
77778;BME280;66966;-34.746;138.604;2023-03-01T09:22:51;101486.21;;;23.65;27.89
77778;BME280;66966;-34.746;138.604;2023-03-01T09:25:16;101490.63;;;23.67;28.07
77778;BME280;66966;-34.746;138.604;2023-03-01T09:27:41;101493.38;;;23.34;28.25
77778;BME280;66966;-34.746;138.604;2023-03-01T09:30:08;101490.66;;;23.33;27.82
77778;BME280;66966;-34.746;138.604;2023-03-01T09:32:32;101492.67;;;23.22;27.66
77778;BME280;66966;-34.746;138.604;2023-03-01T09:34:57;101494.62;;;23.32;27.38
77778;BME280;66966;-34.746;138.604;2023-03-01T09:37:22;101501.83;;;23.31;27.58
77778;BME280;66966;-34.746;138.604;2023-03-01T09:39:48;101507.25;;;23.10;27.59
77778;BME280;66966;-34.746;138.604;2023-03-01T09:42:14;101509.03;;;22.93;27.76
77778;BME280;66966;-34.746;138.604;2023-03-01T09:44:42;101510.88;;;23.20;27.72
77778;BME280;66966;-34.746;138.604;2023-03-01T09:47:04;101511.28;;;23.27;27.65
77778;BME280;66966;-34.746;138.604;2023-03-01T09:49:31;101512.03;;;22.80;27.79
77778;BME280;66966;-34.746;138.604;2023-03-01T09:52:00;101517.08;;;23.07;27.76
77778;BME280;66966;-34.746;138.604;2023-03-01T09:54:20;101520.52;;;22.82;27.74
77778;BME280;66966;-34.746;138.604;2023-03-01T09:56:51;101523.87;;;23.07;27.75
77778;BME280;66966;-34.746;138.604;2023-03-01T09:59:17;101525.86;;;23.03;27.82
77778;BME280;66966;-34.746;138.604;2023-03-01T10:01:40;101528.96;;;22.97;27.89
77778;BME280;66966;-34.746;138.604;2023-03-01T10:06:26;101534.10;;;23.16;27.96
77778;BME280;66966;-34.746;138.604;2023-03-01T10:08:56;101536.48;;;22.93;27.96
77778;BME280;66966;-34.746;138.604;2023-03-01T10:11:21;101540.98;;;22.84;28.02
77778;BME280;66966;-34.746;138.604;2023-03-01T10:13:50;101544.38;;;22.26;28.23
77778;BME280;66966;-34.746;138.604;2023-03-01T10:16:13;101550.84;;;22.36;28.51
77778;BME280;66966;-34.746;138.604;2023-03-01T10:18:34;101554.87;;;22.40;28.61
77778;BME280;66966;-34.746;138.604;2023-03-01T10:21:00;101558.16;;;22.64;28.53
77778;BME280;66966;-34.746;138.604;2023-03-01T10:23:25;101560.57;;;22.48;28.49
77778;BME280;66966;-34.746;138.604;2023-03-01T10:26:00;101563.79;;;22.45;28.79
77778;BME280;66966;-34.746;138.604;2023-03-01T10:28:20;101567.61;;;22.44;28.84
77778;BME280;66966;-34.746;138.604;2023-03-01T10:30:41;101573.07;;;22.30;28.78
77778;BME280;66966;-34.746;138.604;2023-03-01T10:33:13;101575.66;;;22.55;28.94
77778;BME280;66966;-34.746;138.604;2023-03-01T10:35:34;101577.40;;;22.57;28.83
77778;BME280;66966;-34.746;138.604;2023-03-01T10:38:05;101579.26;;;22.55;28.91
77778;BME280;66966;-34.746;138.604;2023-03-01T10:40:21;101580.48;;;22.51;28.87
77778;BME280;66966;-34.746;138.604;2023-03-01T10:42:49;101584.43;;;22.52;28.86
77778;BME280;66966;-34.746;138.604;2023-03-01T10:45:19;101585.44;;;22.51;28.81
77778;BME280;66966;-34.746;138.604;2023-03-01T10:47:38;101589.35;;;22.43;28.89
77778;BME280;66966;-34.746;138.604;2023-03-01T10:50:05;101590.96;;;22.39;28.90
77778;BME280;66966;-34.746;138.604;2023-03-01T10:52:31;101593.75;;;22.25;29.01
77778;BME280;66966;-34.746;138.604;2023-03-01T10:54:56;101597.65;;;22.26;29.08
77778;BME280;66966;-34.746;138.604;2023-03-01T10:57:29;101600.33;;;22.30;29.15
77778;BME280;66966;-34.746;138.604;2023-03-01T10:59:44;101605.25;;;22.21;29.19
77778;BME280;66966;-34.746;138.604;2023-03-01T11:02:18;101607.62;;;22.20;29.30
77778;BME280;66966;-34.746;138.604;2023-03-01T11:04:35;101611.19;;;22.20;29.78
77778;BME280;66966;-34.746;138.604;2023-03-01T11:07:02;101615.54;;;22.19;30.17
77778;BME280;66966;-34.746;138.604;2023-03-01T11:09:26;101618.03;;;22.21;29.76
77778;BME280;66966;-34.746;138.604;2023-03-01T11:11:54;101617.69;;;22.05;30.20
77778;BME280;66966;-34.746;138.604;2023-03-01T11:14:20;101623.31;;;22.00;30.68
77778;BME280;66966;-34.746;138.604;2023-03-01T11:16:45;101626.02;;;21.60;30.36
77778;BME280;66966;-34.746;138.604;2023-03-01T11:19:20;101629.51;;;22.02;30.28
77778;BME280;66966;-34.746;138.604;2023-03-01T11:21:35;101630.56;;;21.73;30.39
77778;BME280;66966;-34.746;138.604;2023-03-01T11:24:00;101632.72;;;21.71;31.17
77778;BME280;66966;-34.746;138.604;2023-03-01T11:26:24;101634.12;;;21.71;30.98
77778;BME280;66966;-34.746;138.604;2023-03-01T11:28:51;101633.94;;;21.72;30.97
77778;BME280;66966;-34.746;138.604;2023-03-01T11:31:14;101633.85;;;21.64;30.75
77778;BME280;66966;-34.746;138.604;2023-03-01T11:33:43;101636.92;;;22.05;30.17
77778;BME280;66966;-34.746;138.604;2023-03-01T11:36:11;101638.76;;;21.69;30.48
77778;BME280;66966;-34.746;138.604;2023-03-01T11:38:34;101636.06;;;21.84;30.92
77778;BME280;66966;-34.746;138.604;2023-03-01T11:41:00;101636.08;;;21.29;31.48
77778;BME280;66966;-34.746;138.604;2023-03-01T11:43:28;101637.41;;;21.69;31.07
77778;BME280;66966;-34.746;138.604;2023-03-01T11:46:02;101634.14;;;21.59;31.27
77778;BME280;66966;-34.746;138.604;2023-03-01T11:48:27;101637.87;;;21.51;31.05
77778;BME280;66966;-34.746;138.604;2023-03-01T11:50:41;101639.07;;;21.48;31.28
77778;BME280;66966;-34.746;138.604;2023-03-01T11:53:21;101641.84;;;21.50;30.89
77778;BME280;66966;-34.746;138.604;2023-03-01T11:55:44;101642.28;;;21.21;31.25
77778;BME280;66966;-34.746;138.604;2023-03-01T11:58:07;101640.23;;;21.09;31.21
77778;BME280;66966;-34.746;138.604;2023-03-01T12:00:29;101644.20;;;21.09;31.16
77778;BME280;66966;-34.746;138.604;2023-03-01T12:05:25;101643.77;;;21.22;31.36
77778;BME280;66966;-34.746;138.604;2023-03-01T12:07:40;101642.05;;;20.96;31.13
77778;BME280;66966;-34.746;138.604;2023-03-01T12:12:33;101645.02;;;20.87;31.08
77778;BME280;66966;-34.746;138.604;2023-03-01T12:15:03;101649.20;;;20.72;30.91
77778;BME280;66966;-34.746;138.604;2023-03-01T12:17:27;101653.15;;;20.77;31.09
77778;BME280;66966;-34.746;138.604;2023-03-01T12:19:51;101651.84;;;20.81;30.84